Home > Products > Valid Products > TAF

000
FTUS41 KCLE 241723
TAFFDY
TAF
KFDY 241723Z 2418/2518 24008KT P6SM SKC
     FM250100 VRB03KT P6SM SKC
     FM251500 22006KT P6SM BKN150=



000
FTUS41 KCLE 241723
TAFTOL
TAF
KTOL 241723Z 2418/2518 24008KT P6SM SKC
     FM250100 VRB03KT P6SM SKC
     FM251500 22006KT P6SM BKN150=



000
FTUS41 KCLE 241723
TAFMFD
TAF
KMFD 241723Z 2418/2518 24010KT P6SM SKC
     FM250100 VRB03KT P6SM SKC
     FM251600 20008KT P6SM BKN250=



000
FTUS41 KCLE 241723
TAFYNG
TAF
KYNG 241723Z 2418/2518 27008KT P6SM FEW050
     FM250100 21003KT P6SM SKC
     FM251500 23008KT P6SM SCT250=



000
FTUS41 KCLE 241723
TAFERI
TAF
KERI 241723Z 2418/2518 29008KT P6SM SKC
     FM250100 21004KT P6SM SKC
     FM251500 22008KT P6SM SCT250=



000
FTUS41 KCLE 241723
TAFCAK
TAF
KCAK 241723Z 2418/2518 24010KT P6SM SKC
     FM250100 VRB03KT P6SM SKC
     FM251600 20008KT P6SM SCT250=



000
FTUS41 KCLE 241723
TAFCLE
TAF
KCLE 241723Z 2418/2524 23008KT P6SM SKC
     FM242000 30008KT P6SM SKC
     FM250100 VRB03KT P6SM SKC
     FM251500 22008KT P6SM SCT250=



000
FTUS41 KCLE 241120
TAFTOL
TAF
KTOL 241120Z 2412/2512 VRB02KT P6SM SKC
     FM241600 23007KT P6SM SCT250
     FM250100 22003KT P6SM SKC=



000
FTUS41 KCLE 241120
TAFYNG
TAF
KYNG 241120Z 2412/2512 07003KT P6SM SKC
     FM241600 28009KT P6SM SCT250
     FM250100 21003KT P6SM SKC=



000
FTUS41 KCLE 241120
TAFMFD
TAF
KMFD 241120Z 2412/2512 17004KT P6SM SKC
     FM241600 24008KT P6SM SCT250
     FM250100 20003KT P6SM SKC=



000
FTUS41 KCLE 241120
TAFCLE
TAF
KCLE 241120Z 2412/2518 20003KT P6SM SKC
     FM241600 27008KT P6SM SCT250
     FM250100 20003KT P6SM SKC=



000
FTUS41 KCLE 241120
TAFFDY
TAF
KFDY 241120Z 2412/2512 VRB02KT P6SM SKC
     FM241600 23007KT P6SM SCT250
     FM250100 22003KT P6SM SKC=



000
FTUS41 KCLE 241120
TAFERI
TAF
KERI 241120Z 2412/2512 18003KT P6SM SKC
     FM241600 29011KT P6SM SCT250
     FM250100 23005KT P6SM SKC=



000
FTUS41 KCLE 241120
TAFCAK
TAF
KCAK 241120Z 2412/2512 24004KT P6SM SKC
     FM241600 27009KT P6SM SCT250
     FM250100 21003KT P6SM SKC=



000
FTUS41 KCLE 240520
TAFTOL
TAF
KTOL 240520Z 2406/2506 VRB02KT P6SM SKC
     FM241600 23007KT P6SM SCT250
     FM250100 22003KT P6SM SKC=



000
FTUS41 KCLE 240520
TAFMFD
TAF
KMFD 240520Z 2406/2506 VRB02KT P6SM SKC
     FM241600 24008KT P6SM SCT250
     FM250100 20003KT P6SM SKC=



000
FTUS41 KCLE 240520
TAFCLE
TAF
KCLE 240520Z 2406/2512 VRB02KT P6SM SKC
     FM241600 27008KT P6SM SCT250
     FM250100 20003KT P6SM SKC=



000
FTUS41 KCLE 240520
TAFYNG
TAF
KYNG 240520Z 2406/2506 VRB02KT P6SM SKC
     FM241600 28009KT P6SM SCT250
     FM250100 21003KT P6SM SKC=



000
FTUS41 KCLE 240520
TAFERI
TAF
KERI 240520Z 2406/2506 19005KT P6SM SKC
     FM241600 29011KT P6SM SCT250
     FM250100 23005KT P6SM SKC=



000
FTUS41 KCLE 240520
TAFFDY
TAF
KFDY 240520Z 2406/2506 VRB02KT P6SM SKC
     FM241600 23007KT P6SM SCT250
     FM250100 22003KT P6SM SKC=



000
FTUS41 KCLE 240520
TAFCAK
TAF
KCAK 240520Z 2406/2506 VRB02KT P6SM SKC
     FM241600 27009KT P6SM SCT250
     FM250100 21003KT P6SM SKC=



000
FTUS41 KCLE 232102 AAA
TAFCLE
TAF AMD
KCLE 232102Z 2321/2424 01008KT P6SM SKC
     FM240000 VRB03KT P6SM SKC
     FM241500 25008KT P6SM SCT250=



000
FTUS41 KCLE 231725
TAFFDY
TAF
KFDY 231725Z 2318/2418 VRB04KT P6SM SKC
     FM241400 23006KT P6SM SCT250=



000
FTUS41 KCLE 231725
TAFCAK
TAF
KCAK 231725Z 2318/2418 34006KT P6SM SCT050
     FM240000 VRB03KT P6SM SKC
     FM241500 23008KT P6SM SCT250=



000
FTUS41 KCLE 231725
TAFMFD
TAF
KMFD 231725Z 2318/2418 35005KT P6SM SCT040
     FM240000 VRB03KT P6SM SKC
     FM241500 23008KT P6SM SCT250=



000
FTUS41 KCLE 231725
TAFERI
TAF
KERI 231725Z 2318/2418 32008KT P6SM SKC
     FM240100 VRB03KT P6SM SKC=



000
FTUS41 KCLE 231725
TAFTOL
TAF
KTOL 231725Z 2318/2418 VRB04KT P6SM SKC
     FM241400 23006KT P6SM SCT250=



000
FTUS41 KCLE 231725
TAFCLE
TAF
KCLE 231725Z 2318/2424 01006KT P6SM SKC
     FM240000 VRB03KT P6SM SKC
     FM241500 25006KT P6SM SCT250=



000
FTUS41 KCLE 231725
TAFYNG
TAF
KYNG 231725Z 2318/2418 36006KT P6SM SCT050
     FM240000 VRB03KT P6SM SKC
     FM241500 23008KT P6SM SCT250=



000
FTUS41 KCLE 231120
TAFYNG
TAF
KYNG 231120Z 2312/2412 35002KT P6SM SCT080
     FM231500 35008KT P6SM SCT045
     FM240100 32003KT P6SM SKC=



000
FTUS41 KCLE 231120
TAFCAK
TAF
KCAK 231120Z 2312/2412 35007KT P6SM SCT045
     FM240100 35003KT P6SM SKC=



000
FTUS41 KCLE 231120
TAFERI
TAF
KERI 231120Z 2312/2412 18004KT P6SM SKC
     FM231500 34006KT P6SM SCT040
     FM240100 VRB03KT P6SM SKC=



000
FTUS41 KCLE 231120
TAFTOL
TAF
KTOL 231120Z 2312/2412 28004KT P6SM SCT045
     FM232100 18003KT P6SM SKC=



000
FTUS41 KCLE 231120
TAFCLE
TAF
KCLE 231120Z 2312/2418 VRB02KT P6SM SKC
     FM231500 34007KT P6SM SCT045
     FM240200 18003KT P6SM SKC=



000
FTUS41 KCLE 231120
TAFMFD
TAF
KMFD 231120Z 2312/2412 34006KT P6SM SCT040
     FM240100 16003KT P6SM SKC=



000
FTUS41 KCLE 231120
TAFFDY
TAF
KFDY 231120Z 2312/2412 29004KT P6SM SCT045
     FM232100 16003KT P6SM SKC=



000
FTUS41 KCLE 230520
TAFCAK
TAF
KCAK 230520Z 2306/2406 36005KT P6SM SKC
     FM231500 35007KT P6SM SCT045
     FM240100 35003KT P6SM SKC=



000
FTUS41 KCLE 230520
TAFMFD
TAF
KMFD 230520Z 2306/2406 36005KT P6SM SKC
     FM231500 34006KT P6SM SCT040
     FM240100 16003KT P6SM SKC=



000
FTUS41 KCLE 230520
TAFCLE
TAF
KCLE 230520Z 2306/2412 02003KT P6SM SKC
     FM231500 34007KT P6SM SCT045
     FM240200 18003KT P6SM SKC=



000
FTUS41 KCLE 230520
TAFFDY
TAF
KFDY 230520Z 2306/2406 VRB03KT P6SM SKC
     FM231500 29004KT P6SM SCT045
     FM232100 16003KT P6SM SKC=



000
FTUS41 KCLE 230520
TAFERI
TAF
KERI 230520Z 2306/2406 22004KT P6SM SKC
     FM231500 34006KT P6SM SCT040
     FM240100 VRB03KT P6SM SKC=



000
FTUS41 KCLE 230520
TAFYNG
TAF
KYNG 230520Z 2306/2406 35006KT P6SM SCT045
     FM231500 35008KT P6SM SCT045
     FM240100 32003KT P6SM SKC=



000
FTUS41 KCLE 230520
TAFTOL
TAF
KTOL 230520Z 2306/2406 VRB02KT P6SM SKC
     FM231500 28004KT P6SM SCT045
     FM232100 18003KT P6SM SKC=



000
FTUS41 KCLE 222334
TAFFDY
TAF
KFDY 222334Z 2300/2324 03005KT P6SM SKC
     FM231500 36004KT P6SM SCT040=



000
FTUS41 KCLE 222334
TAFMFD
TAF
KMFD 222334Z 2300/2324 36004KT P6SM SKC
     FM231500 34006KT P6SM SCT035=



000
FTUS41 KCLE 222334
TAFYNG
TAF
KYNG 222334Z 2300/2324 35010KT P6SM SCT050 BKN090
     FM230100 35005KT P6SM FEW045
     FM231500 35006KT P6SM SCT035
     FM231700 35009KT P6SM BKN040=



000
FTUS41 KCLE 222334
TAFERI
TAF
KERI 222334Z 2300/2324 29004KT P6SM FEW100
     FM231500 32006KT P6SM SCT035
     FM231700 32009KT P6SM FEW040=



000
FTUS41 KCLE 222334
TAFCAK
TAF
KCAK 222334Z 2300/2324 35014KT P6SM FEW045
     FM230100 36005KT P6SM FEW045
     FM231500 35006KT P6SM SCT035
     FM231700 35009KT P6SM BKN040=



000
FTUS41 KCLE 222334
TAFTOL
TAF
KTOL 222334Z 2300/2324 02004KT P6SM SKC
     FM231500 35004KT P6SM SCT040=



000
FTUS41 KCLE 222334
TAFCLE
TAF
KCLE 222334Z 2300/2406 36010KT P6SM FEW045
     FM230100 35004KT P6SM SKC
     FM231500 36007KT P6SM SCT035
     FM231900 36010KT P6SM FEW045
     FM240200 18003KT P6SM SKC=



000
FTUS41 KCLE 221454 AAB
TAFCLE
TAF AMD
KCLE 221454Z 2215/2318 01007KT P6SM SCT035 BKN100
     FM221700 36012KT P6SM SCT040
     FM230000 34004KT P6SM FEW250
     FM231500 36008KT P6SM SCT035=



000
FTUS41 KCLE 221157 AAA
TAFERI
TAF AMD
KERI 221157Z 2212/2312 VRB03KT P6SM BKN100
     FM221600 35010KT P6SM BKN100
     FM230000 35004KT P6SM SCT250=



000
FTUS41 KCLE 221130
TAFCAK
TAF
KCAK 221130Z 2212/2312 VRB03KT 6SM BR BKN100
      TEMPO 2212/2214 4SM BR
     FM221400 34007KT P6SM SCT025 BKN100
     FM221700 35012KT P6SM SCT025 BKN035
     FM230200 35005KT P6SM SCT035
     FM230800 VRB03KT P6SM SKC=



000
FTUS41 KCLE 221130
TAFFDY
TAF
KFDY 221130Z 2212/2312 35007KT P6SM BKN100
     FM221700 01012G20KT P6SM SCT050
     FM222300 03005KT P6SM SKC=



000
FTUS41 KCLE 221130
TAFMFD
TAF
KMFD 221130Z 2212/2312 33007KT P6SM BKN100
     FM221900 35012G20KT P6SM SCT025 BKN035
     FM222300 36004KT P6SM FEW035=



000
FTUS41 KCLE 221130
TAFTOL
TAF
KTOL 221130Z 2212/2312 34007KT P6SM BKN100
     FM221600 03012G20KT P6SM SCT050
     FM222200 05004KT P6SM SKC=



000
FTUS41 KCLE 221130
TAFERI
TAF
KERI 221130Z 2212/2312 VRB03KT P6SM SCT100
     FM221600 35010KT P6SM BKN100
     FM230000 35004KT P6SM SCT250=



000
FTUS41 KCLE 221130
TAFCLE
TAF
KCLE 221130Z 2212/2318 34007KT P6SM BKN100
     FM221600 35012KT P6SM SCT025 BKN035
     FM230000 34004KT P6SM FEW035
     FM231700 01010KT P6SM SKC=



000
FTUS41 KCLE 221130
TAFYNG
TAF
KYNG 221130Z 2212/2312 00000KT 4SM BR SCT004 BKN100
      TEMPO 2212/2213 1 1/2SM BR BKN004
     FM221400 34006KT P6SM SCT035 BKN100
     FM221700 35012KT P6SM VCSH SCT025 BKN035
     FM222200 35005KT P6SM SCT035
     FM230800 VRB03KT P6SM SKC=



000
FTUS41 KCLE 221130 CCA
TAFYNG
TAF COR
KYNG 221130Z 2212/2312 00000KT 4SM BR SCT004 BKN100
      TEMPO 2212/2213 BR BKN004
     FM221400 34006KT P6SM SCT035 BKN100
     FM221700 35012KT P6SM VCSH SCT025 BKN035
     FM222200 35005KT P6SM SCT035
     FM230800 VRB03KT P6SM SKC=



    US Dept of Commerce
    National Oceanic and Atmospheric Administration
    National Weather Service
    1325 East West Highway
    Silver Spring, MD 20910
    Page Author: NWS Internet Services Team
Disclaimer
Information Quality
Credits
Glossary
Privacy Policy
Freedom of Information Act (FOIA)
About Us
Career Opportunities